sensor_id;sensor_type;location;lat;lon;timestamp;P1;durP1;ratioP1;P2;durP2;ratioP2
24859;SDS011;12936;52.006;4.350;2022-07-18T00:01:13;8.88;;;5.65;;
24859;SDS011;12936;52.006;4.350;2022-07-18T00:03:41;9.13;;;5.63;;
24859;SDS011;12936;52.006;4.350;2022-07-18T00:06:09;8.68;;;5.47;;
24859;SDS011;12936;52.006;4.350;2022-07-18T00:08:37;9.43;;;5.35;;
24859;SDS011;12936;52.006;4.350;2022-07-18T00:11:06;9.45;;;5.57;;
24859;SDS011;12936;52.006;4.350;2022-07-18T00:13:34;10.60;;;5.35;;
24859;SDS011;12936;52.006;4.350;2022-07-18T00:16:03;10.27;;;6.05;;
24859;SDS011;12936;52.006;4.350;2022-07-18T00:18:31;8.32;;;5.45;;
24859;SDS011;12936;52.006;4.350;2022-07-18T00:20:59;8.73;;;5.68;;
24859;SDS011;12936;52.006;4.350;2022-07-18T00:23:27;6.63;;;4.95;;
24859;SDS011;12936;52.006;4.350;2022-07-18T00:25:55;8.50;;;5.82;;
24859;SDS011;12936;52.006;4.350;2022-07-18T00:28:25;7.85;;;4.95;;
24859;SDS011;12936;52.006;4.350;2022-07-18T00:30:53;7.68;;;5.15;;
24859;SDS011;12936;52.006;4.350;2022-07-18T00:33:21;8.82;;;5.22;;
24859;SDS011;12936;52.006;4.350;2022-07-18T00:35:49;9.50;;;5.95;;
24859;SDS011;12936;52.006;4.350;2022-07-18T00:38:17;9.13;;;5.60;;
24859;SDS011;12936;52.006;4.350;2022-07-18T00:40:45;7.68;;;5.20;;
24859;SDS011;12936;52.006;4.350;2022-07-18T00:43:13;8.25;;;5.57;;
24859;SDS011;12936;52.006;4.350;2022-07-18T00:45:48;9.57;;;5.50;;
24859;SDS011;12936;52.006;4.350;2022-07-18T00:48:19;7.13;;;4.75;;
24859;SDS011;12936;52.006;4.350;2022-07-18T00:50:47;8.73;;;5.18;;
24859;SDS011;12936;52.006;4.350;2022-07-18T00:53:16;7.45;;;4.95;;
24859;SDS011;12936;52.006;4.350;2022-07-18T00:55:44;9.52;;;5.20;;
24859;SDS011;12936;52.006;4.350;2022-07-18T00:58:13;7.15;;;5.10;;
24859;SDS011;12936;52.006;4.350;2022-07-18T01:00:41;8.20;;;5.28;;
24859;SDS011;12936;52.006;4.350;2022-07-18T01:03:28;10.73;;;5.32;;
24859;SDS011;12936;52.006;4.350;2022-07-18T01:05:56;9.18;;;5.53;;
24859;SDS011;12936;52.006;4.350;2022-07-18T01:08:26;8.48;;;5.10;;
24859;SDS011;12936;52.006;4.350;2022-07-18T01:10:54;11.90;;;5.40;;
24859;SDS011;12936;52.006;4.350;2022-07-18T01:13:22;9.68;;;5.22;;
24859;SDS011;12936;52.006;4.350;2022-07-18T01:15:50;9.40;;;4.82;;
24859;SDS011;12936;52.006;4.350;2022-07-18T01:18:18;8.48;;;5.38;;
24859;SDS011;12936;52.006;4.350;2022-07-18T01:20:48;9.93;;;5.55;;
24859;SDS011;12936;52.006;4.350;2022-07-18T01:23:16;9.20;;;5.78;;
24859;SDS011;12936;52.006;4.350;2022-07-18T01:25:44;7.20;;;5.45;;
24859;SDS011;12936;52.006;4.350;2022-07-18T01:28:12;8.52;;;5.13;;
24859;SDS011;12936;52.006;4.350;2022-07-18T01:30:41;9.65;;;5.65;;
24859;SDS011;12936;52.006;4.350;2022-07-18T01:33:09;8.95;;;5.57;;
24859;SDS011;12936;52.006;4.350;2022-07-18T01:35:37;11.65;;;5.80;;
24859;SDS011;12936;52.006;4.350;2022-07-18T01:38:06;8.32;;;5.63;;
24859;SDS011;12936;52.006;4.350;2022-07-18T01:40:34;12.10;;;5.97;;
24859;SDS011;12936;52.006;4.350;2022-07-18T01:43:02;10.27;;;5.47;;
24859;SDS011;12936;52.006;4.350;2022-07-18T01:45:30;11.27;;;4.97;;
24859;SDS011;12936;52.006;4.350;2022-07-18T01:47:59;9.93;;;5.60;;
24859;SDS011;12936;52.006;4.350;2022-07-18T01:50:27;10.05;;;5.68;;
24859;SDS011;12936;52.006;4.350;2022-07-18T01:52:55;6.65;;;5.00;;
24859;SDS011;12936;52.006;4.350;2022-07-18T01:55:24;11.75;;;5.13;;
24859;SDS011;12936;52.006;4.350;2022-07-18T01:57:52;9.98;;;5.70;;
24859;SDS011;12936;52.006;4.350;2022-07-18T02:00:20;10.25;;;5.63;;
24859;SDS011;12936;52.006;4.350;2022-07-18T02:02:48;8.95;;;5.05;;
24859;SDS011;12936;52.006;4.350;2022-07-18T02:05:17;10.65;;;5.25;;
24859;SDS011;12936;52.006;4.350;2022-07-18T02:07:45;8.77;;;5.35;;
24859;SDS011;12936;52.006;4.350;2022-07-18T02:10:14;7.13;;;5.00;;
24859;SDS011;12936;52.006;4.350;2022-07-18T02:12:45;6.97;;;5.05;;
24859;SDS011;12936;52.006;4.350;2022-07-18T02:15:13;8.15;;;4.90;;
24859;SDS011;12936;52.006;4.350;2022-07-18T02:17:42;9.00;;;5.10;;
24859;SDS011;12936;52.006;4.350;2022-07-18T02:20:11;8.73;;;4.93;;
24859;SDS011;12936;52.006;4.350;2022-07-18T02:22:40;7.53;;;4.40;;
24859;SDS011;12936;52.006;4.350;2022-07-18T02:25:09;10.02;;;5.05;;
24859;SDS011;12936;52.006;4.350;2022-07-18T02:27:38;8.57;;;4.45;;
24859;SDS011;12936;52.006;4.350;2022-07-18T02:30:09;8.40;;;4.55;;
24859;SDS011;12936;52.006;4.350;2022-07-18T02:32:37;9.60;;;4.78;;
24859;SDS011;12936;52.006;4.350;2022-07-18T02:35:06;12.27;;;5.07;;
24859;SDS011;12936;52.006;4.350;2022-07-18T02:37:36;6.68;;;5.00;;
24859;SDS011;12936;52.006;4.350;2022-07-18T02:40:07;11.32;;;4.63;;
24859;SDS011;12936;52.006;4.350;2022-07-18T02:42:37;6.95;;;4.70;;
24859;SDS011;12936;52.006;4.350;2022-07-18T02:45:06;7.18;;;4.30;;
24859;SDS011;12936;52.006;4.350;2022-07-18T02:47:36;6.07;;;4.63;;
24859;SDS011;12936;52.006;4.350;2022-07-18T02:50:05;6.22;;;4.32;;
24859;SDS011;12936;52.006;4.350;2022-07-18T02:52:34;8.98;;;4.47;;
24859;SDS011;12936;52.006;4.350;2022-07-18T02:55:02;9.05;;;4.35;;
24859;SDS011;12936;52.006;4.350;2022-07-18T02:57:31;7.35;;;4.30;;
24859;SDS011;12936;52.006;4.350;2022-07-18T02:59:59;8.05;;;4.03;;
24859;SDS011;12936;52.006;4.350;2022-07-18T03:02:29;8.50;;;4.72;;
24859;SDS011;12936;52.006;4.350;2022-07-18T03:04:57;9.05;;;4.18;;
24859;SDS011;12936;52.006;4.350;2022-07-18T03:07:25;6.63;;;4.38;;
24859;SDS011;12936;52.006;4.350;2022-07-18T03:09:53;7.70;;;3.90;;
24859;SDS011;12936;52.006;4.350;2022-07-18T03:12:21;6.05;;;3.78;;
24859;SDS011;12936;52.006;4.350;2022-07-18T03:14:49;7.07;;;4.05;;
24859;SDS011;12936;52.006;4.350;2022-07-18T03:17:18;8.15;;;4.00;;
24859;SDS011;12936;52.006;4.350;2022-07-18T03:19:47;6.13;;;3.42;;
24859;SDS011;12936;52.006;4.350;2022-07-18T03:22:15;7.25;;;4.07;;
24859;SDS011;12936;52.006;4.350;2022-07-18T03:24:43;7.35;;;3.95;;
24859;SDS011;12936;52.006;4.350;2022-07-18T03:27:11;7.85;;;4.03;;
24859;SDS011;12936;52.006;4.350;2022-07-18T03:29:39;6.65;;;3.78;;
24859;SDS011;12936;52.006;4.350;2022-07-18T03:32:07;7.43;;;4.22;;
24859;SDS011;12936;52.006;4.350;2022-07-18T03:34:35;6.38;;;4.40;;
24859;SDS011;12936;52.006;4.350;2022-07-18T03:37:04;9.05;;;4.15;;
24859;SDS011;12936;52.006;4.350;2022-07-18T03:39:32;8.85;;;3.67;;
24859;SDS011;12936;52.006;4.350;2022-07-18T03:42:00;9.98;;;3.75;;
24859;SDS011;12936;52.006;4.350;2022-07-18T03:44:28;4.93;;;3.42;;
24859;SDS011;12936;52.006;4.350;2022-07-18T03:46:57;6.18;;;3.33;;
24859;SDS011;12936;52.006;4.350;2022-07-18T03:49:25;8.20;;;4.30;;
24859;SDS011;12936;52.006;4.350;2022-07-18T03:51:53;11.25;;;4.40;;
24859;SDS011;12936;52.006;4.350;2022-07-18T03:54:23;8.55;;;4.28;;
24859;SDS011;12936;52.006;4.350;2022-07-18T03:56:51;7.40;;;3.75;;
24859;SDS011;12936;52.006;4.350;2022-07-18T03:59:19;6.18;;;3.72;;
24859;SDS011;12936;52.006;4.350;2022-07-18T04:01:47;7.32;;;4.05;;
24859;SDS011;12936;52.006;4.350;2022-07-18T04:04:15;7.38;;;3.60;;
24859;SDS011;12936;52.006;4.350;2022-07-18T04:06:44;6.50;;;4.05;;
24859;SDS011;12936;52.006;4.350;2022-07-18T04:09:12;9.07;;;3.75;;
24859;SDS011;12936;52.006;4.350;2022-07-18T04:11:42;5.82;;;3.67;;
24859;SDS011;12936;52.006;4.350;2022-07-18T04:14:10;8.07;;;3.58;;
24859;SDS011;12936;52.006;4.350;2022-07-18T04:16:38;5.93;;;3.55;;
24859;SDS011;12936;52.006;4.350;2022-07-18T04:19:06;7.97;;;3.80;;
24859;SDS011;12936;52.006;4.350;2022-07-18T04:21:34;6.90;;;3.58;;
24859;SDS011;12936;52.006;4.350;2022-07-18T04:24:02;6.35;;;3.70;;
24859;SDS011;12936;52.006;4.350;2022-07-18T04:26:30;5.78;;;3.45;;
24859;SDS011;12936;52.006;4.350;2022-07-18T04:29:00;6.80;;;3.72;;
24859;SDS011;12936;52.006;4.350;2022-07-18T04:31:28;8.60;;;3.83;;
24859;SDS011;12936;52.006;4.350;2022-07-18T04:33:56;4.95;;;3.00;;
24859;SDS011;12936;52.006;4.350;2022-07-18T04:36:24;6.32;;;3.42;;
24859;SDS011;12936;52.006;4.350;2022-07-18T04:38:52;8.13;;;3.35;;
24859;SDS011;12936;52.006;4.350;2022-07-18T04:41:20;8.80;;;3.33;;
24859;SDS011;12936;52.006;4.350;2022-07-18T04:43:51;8.20;;;4.55;;
24859;SDS011;12936;52.006;4.350;2022-07-18T04:46:20;7.93;;;3.95;;
24859;SDS011;12936;52.006;4.350;2022-07-18T04:48:48;9.10;;;3.97;;
24859;SDS011;12936;52.006;4.350;2022-07-18T04:51:16;6.03;;;3.63;;
24859;SDS011;12936;52.006;4.350;2022-07-18T04:53:44;9.60;;;3.17;;
24859;SDS011;12936;52.006;4.350;2022-07-18T04:56:12;5.88;;;3.00;;
24859;SDS011;12936;52.006;4.350;2022-07-18T04:58:40;6.38;;;2.90;;
24859;SDS011;12936;52.006;4.350;2022-07-18T05:01:08;11.18;;;3.03;;
24859;SDS011;12936;52.006;4.350;2022-07-18T05:03:38;13.18;;;3.30;;
24859;SDS011;12936;52.006;4.350;2022-07-18T05:06:06;10.00;;;2.90;;
24859;SDS011;12936;52.006;4.350;2022-07-18T05:08:35;12.18;;;3.30;;
24859;SDS011;12936;52.006;4.350;2022-07-18T05:11:04;6.78;;;2.97;;
24859;SDS011;12936;52.006;4.350;2022-07-18T05:13:32;7.28;;;2.92;;
24859;SDS011;12936;52.006;4.350;2022-07-18T05:16:00;6.30;;;2.88;;
24859;SDS011;12936;52.006;4.350;2022-07-18T05:18:29;8.32;;;2.75;;
24859;SDS011;12936;52.006;4.350;2022-07-18T05:21:00;7.05;;;2.55;;
24859;SDS011;12936;52.006;4.350;2022-07-18T05:23:29;6.88;;;2.70;;
24859;SDS011;12936;52.006;4.350;2022-07-18T05:25:57;7.75;;;2.72;;
24859;SDS011;12936;52.006;4.350;2022-07-18T05:28:26;9.48;;;3.20;;
24859;SDS011;12936;52.006;4.350;2022-07-18T05:30:54;9.65;;;2.88;;
24859;SDS011;12936;52.006;4.350;2022-07-18T05:33:22;7.40;;;3.25;;
24859;SDS011;12936;52.006;4.350;2022-07-18T05:35:50;10.25;;;3.22;;
24859;SDS011;12936;52.006;4.350;2022-07-18T05:38:20;6.75;;;2.88;;
24859;SDS011;12936;52.006;4.350;2022-07-18T05:40:48;12.38;;;3.20;;
24859;SDS011;12936;52.006;4.350;2022-07-18T05:43:16;9.82;;;3.05;;
24859;SDS011;12936;52.006;4.350;2022-07-18T05:45:44;8.35;;;2.97;;
24859;SDS011;12936;52.006;4.350;2022-07-18T05:48:12;14.95;;;3.10;;
24859;SDS011;12936;52.006;4.350;2022-07-18T05:50:40;16.05;;;3.50;;
24859;SDS011;12936;52.006;4.350;2022-07-18T05:53:08;7.57;;;2.75;;
24859;SDS011;12936;52.006;4.350;2022-07-18T05:55:39;7.05;;;2.63;;
24859;SDS011;12936;52.006;4.350;2022-07-18T05:58:07;5.32;;;2.70;;
24859;SDS011;12936;52.006;4.350;2022-07-18T06:00:35;7.00;;;3.20;;
24859;SDS011;12936;52.006;4.350;2022-07-18T06:03:03;9.63;;;2.90;;
24859;SDS011;12936;52.006;4.350;2022-07-18T06:05:31;9.48;;;3.22;;
24859;SDS011;12936;52.006;4.350;2022-07-18T06:07:59;9.55;;;3.42;;
24859;SDS011;12936;52.006;4.350;2022-07-18T06:10:28;10.70;;;3.70;;
24859;SDS011;12936;52.006;4.350;2022-07-18T06:12:57;13.77;;;3.90;;
24859;SDS011;12936;52.006;4.350;2022-07-18T06:15:25;15.13;;;4.28;;
24859;SDS011;12936;52.006;4.350;2022-07-18T06:17:53;13.32;;;4.20;;
24859;SDS011;12936;52.006;4.350;2022-07-18T06:20:22;12.82;;;4.10;;
24859;SDS011;12936;52.006;4.350;2022-07-18T06:22:50;10.48;;;3.53;;
24859;SDS011;12936;52.006;4.350;2022-07-18T06:25:18;9.05;;;3.40;;
24859;SDS011;12936;52.006;4.350;2022-07-18T06:27:46;7.20;;;3.05;;
24859;SDS011;12936;52.006;4.350;2022-07-18T06:30:15;5.57;;;3.30;;
24859;SDS011;12936;52.006;4.350;2022-07-18T06:32:43;6.20;;;3.53;;
24859;SDS011;12936;52.006;4.350;2022-07-18T06:35:11;7.43;;;3.63;;
24859;SDS011;12936;52.006;4.350;2022-07-18T06:37:39;7.13;;;3.30;;
24859;SDS011;12936;52.006;4.350;2022-07-18T06:40:08;7.22;;;3.45;;
24859;SDS011;12936;52.006;4.350;2022-07-18T06:42:36;7.47;;;3.72;;
24859;SDS011;12936;52.006;4.350;2022-07-18T06:45:05;8.82;;;3.30;;
24859;SDS011;12936;52.006;4.350;2022-07-18T06:47:39;12.05;;;4.05;;
24859;SDS011;12936;52.006;4.350;2022-07-18T06:50:08;8.48;;;3.38;;
24859;SDS011;12936;52.006;4.350;2022-07-18T06:52:36;6.68;;;3.55;;
24859;SDS011;12936;52.006;4.350;2022-07-18T06:55:06;9.50;;;3.75;;
24859;SDS011;12936;52.006;4.350;2022-07-18T06:57:34;8.65;;;3.50;;
24859;SDS011;12936;52.006;4.350;2022-07-18T07:00:03;7.35;;;3.25;;
24859;SDS011;12936;52.006;4.350;2022-07-18T07:02:33;7.03;;;3.38;;
24859;SDS011;12936;52.006;4.350;2022-07-18T07:05:02;7.07;;;2.67;;
24859;SDS011;12936;52.006;4.350;2022-07-18T07:07:31;6.43;;;3.35;;
24859;SDS011;12936;52.006;4.350;2022-07-18T07:09:59;7.47;;;3.28;;
24859;SDS011;12936;52.006;4.350;2022-07-18T07:12:27;6.05;;;3.17;;
24859;SDS011;12936;52.006;4.350;2022-07-18T07:14:55;7.75;;;3.10;;
24859;SDS011;12936;52.006;4.350;2022-07-18T07:17:23;7.05;;;2.90;;
24859;SDS011;12936;52.006;4.350;2022-07-18T07:19:51;6.18;;;2.50;;
24859;SDS011;12936;52.006;4.350;2022-07-18T07:22:20;8.23;;;3.08;;
24859;SDS011;12936;52.006;4.350;2022-07-18T07:24:48;8.25;;;3.03;;
24859;SDS011;12936;52.006;4.350;2022-07-18T07:27:16;5.60;;;3.00;;
24859;SDS011;12936;52.006;4.350;2022-07-18T07:29:44;6.75;;;2.72;;
24859;SDS011;12936;52.006;4.350;2022-07-18T07:32:12;4.32;;;2.58;;
24859;SDS011;12936;52.006;4.350;2022-07-18T07:34:40;8.90;;;2.90;;
24859;SDS011;12936;52.006;4.350;2022-07-18T07:37:08;10.40;;;3.50;;
24859;SDS011;12936;52.006;4.350;2022-07-18T07:39:38;13.40;;;3.78;;
24859;SDS011;12936;52.006;4.350;2022-07-18T07:42:06;9.88;;;3.35;;
24859;SDS011;12936;52.006;4.350;2022-07-18T07:44:34;9.35;;;3.28;;
24859;SDS011;12936;52.006;4.350;2022-07-18T07:47:02;10.02;;;2.72;;
24859;SDS011;12936;52.006;4.350;2022-07-18T07:49:30;8.45;;;2.95;;
24859;SDS011;12936;52.006;4.350;2022-07-18T07:52:00;10.32;;;3.40;;
24859;SDS011;12936;52.006;4.350;2022-07-18T07:54:28;11.75;;;3.25;;
24859;SDS011;12936;52.006;4.350;2022-07-18T07:56:57;10.65;;;3.35;;
24859;SDS011;12936;52.006;4.350;2022-07-18T07:59:25;11.25;;;4.50;;
24859;SDS011;12936;52.006;4.350;2022-07-18T08:01:53;9.90;;;3.58;;
24859;SDS011;12936;52.006;4.350;2022-07-18T08:04:21;10.02;;;3.00;;
24859;SDS011;12936;52.006;4.350;2022-07-18T08:06:49;8.48;;;2.67;;
24859;SDS011;12936;52.006;4.350;2022-07-18T08:09:18;6.90;;;2.65;;
24859;SDS011;12936;52.006;4.350;2022-07-18T08:11:46;10.88;;;3.33;;
24859;SDS011;12936;52.006;4.350;2022-07-18T08:14:15;8.63;;;2.92;;
24859;SDS011;12936;52.006;4.350;2022-07-18T08:16:43;8.60;;;2.33;;
24859;SDS011;12936;52.006;4.350;2022-07-18T08:19:11;5.10;;;2.22;;
24859;SDS011;12936;52.006;4.350;2022-07-18T08:21:39;8.15;;;2.30;;
24859;SDS011;12936;52.006;4.350;2022-07-18T08:24:08;7.00;;;2.03;;
24859;SDS011;12936;52.006;4.350;2022-07-18T08:26:36;8.00;;;2.38;;
24859;SDS011;12936;52.006;4.350;2022-07-18T08:29:05;10.52;;;2.40;;
24859;SDS011;12936;52.006;4.350;2022-07-18T08:31:35;7.18;;;2.78;;
24859;SDS011;12936;52.006;4.350;2022-07-18T08:34:04;7.65;;;3.90;;
24859;SDS011;12936;52.006;4.350;2022-07-18T08:36:32;6.82;;;3.03;;
24859;SDS011;12936;52.006;4.350;2022-07-18T08:39:05;9.50;;;2.42;;
24859;SDS011;12936;52.006;4.350;2022-07-18T08:41:33;6.60;;;2.25;;
24859;SDS011;12936;52.006;4.350;2022-07-18T08:44:03;10.13;;;2.83;;
24859;SDS011;12936;52.006;4.350;2022-07-18T08:46:32;13.48;;;3.08;;
24859;SDS011;12936;52.006;4.350;2022-07-18T08:49:04;4.93;;;2.47;;
24859;SDS011;12936;52.006;4.350;2022-07-18T08:51:33;5.05;;;2.50;;
24859;SDS011;12936;52.006;4.350;2022-07-18T08:54:02;6.30;;;2.78;;
24859;SDS011;12936;52.006;4.350;2022-07-18T08:56:30;6.20;;;2.10;;
24859;SDS011;12936;52.006;4.350;2022-07-18T08:58:59;4.25;;;2.45;;
24859;SDS011;12936;52.006;4.350;2022-07-18T09:01:28;6.30;;;2.33;;
24859;SDS011;12936;52.006;4.350;2022-07-18T09:03:58;13.77;;;2.92;;
24859;SDS011;12936;52.006;4.350;2022-07-18T09:06:43;9.98;;;2.50;;
24859;SDS011;12936;52.006;4.350;2022-07-18T09:09:13;7.78;;;2.20;;
24859;SDS011;12936;52.006;4.350;2022-07-18T09:11:49;4.47;;;1.83;;
24859;SDS011;12936;52.006;4.350;2022-07-18T09:14:32;8.50;;;2.38;;
24859;SDS011;12936;52.006;4.350;2022-07-18T09:17:04;8.27;;;2.33;;
24859;SDS011;12936;52.006;4.350;2022-07-18T09:19:35;7.68;;;2.10;;
24859;SDS011;12936;52.006;4.350;2022-07-18T09:22:14;6.40;;;2.30;;
24859;SDS011;12936;52.006;4.350;2022-07-18T09:24:54;6.55;;;2.45;;
24859;SDS011;12936;52.006;4.350;2022-07-18T09:27:25;8.35;;;2.45;;
24859;SDS011;12936;52.006;4.350;2022-07-18T09:32:47;7.60;;;2.50;;
24859;SDS011;12936;52.006;4.350;2022-07-18T09:35:19;7.32;;;2.15;;
24859;SDS011;12936;52.006;4.350;2022-07-18T09:37:53;4.15;;;2.05;;
24859;SDS011;12936;52.006;4.350;2022-07-18T09:40:25;5.72;;;2.15;;
24859;SDS011;12936;52.006;4.350;2022-07-18T09:42:56;4.75;;;2.22;;
24859;SDS011;12936;52.006;4.350;2022-07-18T09:45:27;4.97;;;1.90;;
24859;SDS011;12936;52.006;4.350;2022-07-18T09:47:57;5.50;;;2.13;;
24859;SDS011;12936;52.006;4.350;2022-07-18T09:50:28;6.40;;;2.38;;
24859;SDS011;12936;52.006;4.350;2022-07-18T09:53:02;3.65;;;2.10;;
24859;SDS011;12936;52.006;4.350;2022-07-18T09:55:56;3.72;;;1.83;;
24859;SDS011;12936;52.006;4.350;2022-07-18T09:58:26;4.78;;;1.60;;
24859;SDS011;12936;52.006;4.350;2022-07-18T10:00:56;3.67;;;1.60;;
24859;SDS011;12936;52.006;4.350;2022-07-18T10:03:25;4.28;;;1.67;;
24859;SDS011;12936;52.006;4.350;2022-07-18T10:05:55;4.20;;;1.50;;
24859;SDS011;12936;52.006;4.350;2022-07-18T10:08:25;6.28;;;1.75;;
24859;SDS011;12936;52.006;4.350;2022-07-18T10:10:55;4.68;;;1.50;;
24859;SDS011;12936;52.006;4.350;2022-07-18T10:13:25;3.60;;;1.38;;
24859;SDS011;12936;52.006;4.350;2022-07-18T10:15:55;4.70;;;1.65;;
24859;SDS011;12936;52.006;4.350;2022-07-18T10:18:24;6.15;;;2.05;;
24859;SDS011;12936;52.006;4.350;2022-07-18T10:20:54;3.88;;;1.50;;
24859;SDS011;12936;52.006;4.350;2022-07-18T10:23:27;6.45;;;2.15;;
24859;SDS011;12936;52.006;4.350;2022-07-18T10:26:07;4.25;;;1.70;;
24859;SDS011;12936;52.006;4.350;2022-07-18T10:31:59;5.05;;;1.67;;
24859;SDS011;12936;52.006;4.350;2022-07-18T10:34:31;5.57;;;1.70;;
24859;SDS011;12936;52.006;4.350;2022-07-18T10:37:10;2.58;;;1.75;;
24859;SDS011;12936;52.006;4.350;2022-07-18T10:39:39;3.35;;;2.03;;
24859;SDS011;12936;52.006;4.350;2022-07-18T10:42:14;2.45;;;1.45;;
24859;SDS011;12936;52.006;4.350;2022-07-18T10:44:45;4.00;;;1.90;;
24859;SDS011;12936;52.006;4.350;2022-07-18T10:47:14;3.50;;;1.80;;
24859;SDS011;12936;52.006;4.350;2022-07-18T10:50:06;3.05;;;2.00;;
24859;SDS011;12936;52.006;4.350;2022-07-18T10:52:57;4.82;;;2.10;;
24859;SDS011;12936;52.006;4.350;2022-07-18T10:55:26;3.08;;;1.98;;
24859;SDS011;12936;52.006;4.350;2022-07-18T10:58:14;2.47;;;1.80;;
24859;SDS011;12936;52.006;4.350;2022-07-18T11:00:43;2.95;;;2.15;;
24859;SDS011;12936;52.006;4.350;2022-07-18T11:03:15;3.15;;;1.98;;
24859;SDS011;12936;52.006;4.350;2022-07-18T11:05:46;4.53;;;2.47;;
24859;SDS011;12936;52.006;4.350;2022-07-18T11:08:20;3.72;;;2.30;;
24859;SDS011;12936;52.006;4.350;2022-07-18T11:11:09;3.55;;;2.53;;
24859;SDS011;12936;52.006;4.350;2022-07-18T11:13:39;3.72;;;2.60;;
24859;SDS011;12936;52.006;4.350;2022-07-18T11:16:10;6.47;;;2.58;;
24859;SDS011;12936;52.006;4.350;2022-07-18T11:21:55;4.10;;;3.05;;
24859;SDS011;12936;52.006;4.350;2022-07-18T11:24:25;3.42;;;2.17;;
24859;SDS011;12936;52.006;4.350;2022-07-18T11:26:54;3.65;;;2.30;;
24859;SDS011;12936;52.006;4.350;2022-07-18T11:29:22;4.57;;;2.42;;
24859;SDS011;12936;52.006;4.350;2022-07-18T11:31:51;4.10;;;2.58;;
24859;SDS011;12936;52.006;4.350;2022-07-18T11:34:23;3.22;;;2.15;;
24859;SDS011;12936;52.006;4.350;2022-07-18T11:37:12;4.45;;;2.45;;
24859;SDS011;12936;52.006;4.350;2022-07-18T11:39:42;7.03;;;2.85;;
24859;SDS011;12936;52.006;4.350;2022-07-18T11:42:10;3.60;;;2.28;;
24859;SDS011;12936;52.006;4.350;2022-07-18T11:44:39;4.28;;;2.08;;
24859;SDS011;12936;52.006;4.350;2022-07-18T11:47:07;4.75;;;2.60;;
24859;SDS011;12936;52.006;4.350;2022-07-18T11:49:37;4.75;;;2.40;;
24859;SDS011;12936;52.006;4.350;2022-07-18T11:52:06;3.60;;;2.33;;
24859;SDS011;12936;52.006;4.350;2022-07-18T11:54:34;4.38;;;2.50;;
24859;SDS011;12936;52.006;4.350;2022-07-18T11:57:03;4.40;;;2.85;;
24859;SDS011;12936;52.006;4.350;2022-07-18T11:59:35;4.63;;;2.63;;
24859;SDS011;12936;52.006;4.350;2022-07-18T12:02:04;6.88;;;2.80;;
24859;SDS011;12936;52.006;4.350;2022-07-18T12:04:33;5.45;;;2.80;;
24859;SDS011;12936;52.006;4.350;2022-07-18T12:07:11;5.82;;;2.63;;
24859;SDS011;12936;52.006;4.350;2022-07-18T12:09:40;3.28;;;2.45;;
24859;SDS011;12936;52.006;4.350;2022-07-18T12:12:10;4.80;;;2.80;;
24859;SDS011;12936;52.006;4.350;2022-07-18T12:14:55;3.75;;;2.60;;
24859;SDS011;12936;52.006;4.350;2022-07-18T12:17:24;6.85;;;2.75;;
24859;SDS011;12936;52.006;4.350;2022-07-18T12:19:52;5.00;;;2.72;;
24859;SDS011;12936;52.006;4.350;2022-07-18T12:22:36;4.43;;;2.80;;
24859;SDS011;12936;52.006;4.350;2022-07-18T12:25:09;3.25;;;2.75;;
24859;SDS011;12936;52.006;4.350;2022-07-18T12:27:38;3.58;;;2.45;;
24859;SDS011;12936;52.006;4.350;2022-07-18T12:30:07;3.97;;;2.78;;
24859;SDS011;12936;52.006;4.350;2022-07-18T12:32:39;4.70;;;2.33;;
24859;SDS011;12936;52.006;4.350;2022-07-18T12:35:09;4.90;;;2.33;;
24859;SDS011;12936;52.006;4.350;2022-07-18T12:37:38;3.75;;;2.80;;
24859;SDS011;12936;52.006;4.350;2022-07-18T12:40:12;3.72;;;2.47;;
24859;SDS011;12936;52.006;4.350;2022-07-18T12:43:03;3.03;;;2.22;;
24859;SDS011;12936;52.006;4.350;2022-07-18T12:45:33;3.75;;;2.50;;
24859;SDS011;12936;52.006;4.350;2022-07-18T12:48:02;4.07;;;2.47;;
24859;SDS011;12936;52.006;4.350;2022-07-18T12:50:30;4.93;;;2.70;;
24859;SDS011;12936;52.006;4.350;2022-07-18T12:52:58;4.28;;;2.33;;
24859;SDS011;12936;52.006;4.350;2022-07-18T12:55:26;5.03;;;2.60;;
24859;SDS011;12936;52.006;4.350;2022-07-18T12:57:57;4.95;;;3.03;;
24859;SDS011;12936;52.006;4.350;2022-07-18T13:00:27;4.53;;;2.60;;
24859;SDS011;12936;52.006;4.350;2022-07-18T13:02:56;4.20;;;2.63;;
24859;SDS011;12936;52.006;4.350;2022-07-18T13:05:26;4.25;;;2.70;;
24859;SDS011;12936;52.006;4.350;2022-07-18T13:07:55;3.28;;;2.55;;
24859;SDS011;12936;52.006;4.350;2022-07-18T13:10:23;3.30;;;2.40;;
24859;SDS011;12936;52.006;4.350;2022-07-18T13:12:51;5.97;;;4.80;;
24859;SDS011;12936;52.006;4.350;2022-07-18T13:15:19;4.55;;;2.38;;
24859;SDS011;12936;52.006;4.350;2022-07-18T13:17:49;4.47;;;2.40;;
24859;SDS011;12936;52.006;4.350;2022-07-18T13:20:17;5.35;;;2.40;;
24859;SDS011;12936;52.006;4.350;2022-07-18T13:22:45;5.00;;;2.40;;
24859;SDS011;12936;52.006;4.350;2022-07-18T13:25:19;4.35;;;2.47;;
24859;SDS011;12936;52.006;4.350;2022-07-18T13:27:48;5.30;;;2.50;;
24859;SDS011;12936;52.006;4.350;2022-07-18T13:30:17;6.63;;;2.53;;
24859;SDS011;12936;52.006;4.350;2022-07-18T13:32:45;3.17;;;2.33;;
24859;SDS011;12936;52.006;4.350;2022-07-18T13:35:14;3.55;;;2.30;;
24859;SDS011;12936;52.006;4.350;2022-07-18T13:37:43;7.40;;;2.33;;
24859;SDS011;12936;52.006;4.350;2022-07-18T13:40:12;2.63;;;2.20;;
24859;SDS011;12936;52.006;4.350;2022-07-18T13:42:41;2.85;;;2.38;;
24859;SDS011;12936;52.006;4.350;2022-07-18T13:45:09;3.92;;;2.55;;
24859;SDS011;12936;52.006;4.350;2022-07-18T13:47:40;4.90;;;2.53;;
24859;SDS011;12936;52.006;4.350;2022-07-18T13:50:09;3.47;;;2.15;;
24859;SDS011;12936;52.006;4.350;2022-07-18T13:52:39;2.88;;;2.05;;
24859;SDS011;12936;52.006;4.350;2022-07-18T13:55:07;4.88;;;2.47;;
24859;SDS011;12936;52.006;4.350;2022-07-18T13:57:36;3.00;;;2.60;;
24859;SDS011;12936;52.006;4.350;2022-07-18T14:00:06;4.18;;;2.60;;
24859;SDS011;12936;52.006;4.350;2022-07-18T14:02:35;4.60;;;2.10;;
24859;SDS011;12936;52.006;4.350;2022-07-18T14:05:04;3.03;;;2.53;;
24859;SDS011;12936;52.006;4.350;2022-07-18T14:07:40;2.90;;;2.20;;
24859;SDS011;12936;52.006;4.350;2022-07-18T14:10:09;4.55;;;2.40;;
24859;SDS011;12936;52.006;4.350;2022-07-18T14:12:37;2.60;;;2.10;;
24859;SDS011;12936;52.006;4.350;2022-07-18T14:15:06;3.70;;;2.50;;
24859;SDS011;12936;52.006;4.350;2022-07-18T14:17:35;2.45;;;1.98;;
24859;SDS011;12936;52.006;4.350;2022-07-18T14:20:04;7.20;;;2.30;;
24859;SDS011;12936;52.006;4.350;2022-07-18T14:22:34;2.67;;;2.15;;
24859;SDS011;12936;52.006;4.350;2022-07-18T14:25:04;3.60;;;2.38;;
24859;SDS011;12936;52.006;4.350;2022-07-18T14:27:32;4.55;;;2.88;;
24859;SDS011;12936;52.006;4.350;2022-07-18T14:30:01;3.55;;;2.15;;
24859;SDS011;12936;52.006;4.350;2022-07-18T14:32:30;4.50;;;2.03;;
24859;SDS011;12936;52.006;4.350;2022-07-18T14:34:58;2.45;;;2.10;;
24859;SDS011;12936;52.006;4.350;2022-07-18T14:37:26;4.13;;;2.15;;
24859;SDS011;12936;52.006;4.350;2022-07-18T14:39:54;3.00;;;2.40;;
24859;SDS011;12936;52.006;4.350;2022-07-18T14:42:23;3.30;;;2.17;;
24859;SDS011;12936;52.006;4.350;2022-07-18T14:44:52;3.88;;;2.28;;
24859;SDS011;12936;52.006;4.350;2022-07-18T14:47:21;3.08;;;2.33;;
24859;SDS011;12936;52.006;4.350;2022-07-18T14:49:49;3.78;;;2.33;;
24859;SDS011;12936;52.006;4.350;2022-07-18T14:52:17;3.17;;;2.30;;
24859;SDS011;12936;52.006;4.350;2022-07-18T14:54:46;5.88;;;2.72;;
24859;SDS011;12936;52.006;4.350;2022-07-18T14:57:14;3.80;;;2.35;;
24859;SDS011;12936;52.006;4.350;2022-07-18T14:59:44;3.22;;;2.15;;
24859;SDS011;12936;52.006;4.350;2022-07-18T15:02:13;4.75;;;2.40;;
24859;SDS011;12936;52.006;4.350;2022-07-18T15:04:41;3.72;;;2.47;;
24859;SDS011;12936;52.006;4.350;2022-07-18T15:07:10;2.65;;;2.08;;
24859;SDS011;12936;52.006;4.350;2022-07-18T15:09:38;4.05;;;2.63;;